sensor_id;sensor_type;location;lat;lon;timestamp;P1;durP1;ratioP1;P2;durP2;ratioP2
15871;SDS011;8035;51.962;7.162;2023-02-28T00:00:21;4.07;;;3.57;;
15871;SDS011;8035;51.962;7.162;2023-02-28T00:02:47;3.93;;;3.27;;
15871;SDS011;8035;51.962;7.162;2023-02-28T00:05:14;4.37;;;3.70;;
15871;SDS011;8035;51.962;7.162;2023-02-28T00:07:42;4.50;;;3.73;;
15871;SDS011;8035;51.962;7.162;2023-02-28T00:10:09;5.27;;;4.00;;
15871;SDS011;8035;51.962;7.162;2023-02-28T00:12:36;5.30;;;3.70;;
15871;SDS011;8035;51.962;7.162;2023-02-28T00:15:06;4.43;;;4.03;;
15871;SDS011;8035;51.962;7.162;2023-02-28T00:17:34;5.50;;;4.20;;
15871;SDS011;8035;51.962;7.162;2023-02-28T00:20:00;8.20;;;4.10;;
15871;SDS011;8035;51.962;7.162;2023-02-28T00:22:40;10.00;;;4.03;;
15871;SDS011;8035;51.962;7.162;2023-02-28T00:25:07;5.40;;;4.17;;
15871;SDS011;8035;51.962;7.162;2023-02-28T00:27:37;4.70;;;4.20;;
15871;SDS011;8035;51.962;7.162;2023-02-28T00:30:04;6.53;;;4.30;;
15871;SDS011;8035;51.962;7.162;2023-02-28T00:32:31;6.03;;;4.10;;
15871;SDS011;8035;51.962;7.162;2023-02-28T00:34:57;5.03;;;4.37;;
15871;SDS011;8035;51.962;7.162;2023-02-28T00:37:22;6.30;;;4.37;;
15871;SDS011;8035;51.962;7.162;2023-02-28T00:39:48;6.13;;;4.20;;
15871;SDS011;8035;51.962;7.162;2023-02-28T00:42:14;5.07;;;3.90;;
15871;SDS011;8035;51.962;7.162;2023-02-28T00:44:39;7.37;;;4.33;;
15871;SDS011;8035;51.962;7.162;2023-02-28T00:47:05;5.37;;;4.10;;
15871;SDS011;8035;51.962;7.162;2023-02-28T00:49:31;5.10;;;4.60;;
15871;SDS011;8035;51.962;7.162;2023-02-28T00:51:57;7.43;;;4.67;;
15871;SDS011;8035;51.962;7.162;2023-02-28T00:54:23;7.37;;;5.00;;
15871;SDS011;8035;51.962;7.162;2023-02-28T00:56:49;5.43;;;4.80;;
15871;SDS011;8035;51.962;7.162;2023-02-28T00:59:15;5.33;;;4.13;;
15871;SDS011;8035;51.962;7.162;2023-02-28T01:01:42;5.60;;;4.33;;
15871;SDS011;8035;51.962;7.162;2023-02-28T01:04:09;4.70;;;3.97;;
15871;SDS011;8035;51.962;7.162;2023-02-28T01:06:35;6.43;;;4.43;;
15871;SDS011;8035;51.962;7.162;2023-02-28T01:09:01;5.47;;;4.17;;
15871;SDS011;8035;51.962;7.162;2023-02-28T01:11:28;6.30;;;4.53;;
15871;SDS011;8035;51.962;7.162;2023-02-28T01:13:54;6.67;;;4.03;;
15871;SDS011;8035;51.962;7.162;2023-02-28T01:16:19;5.73;;;4.10;;
15871;SDS011;8035;51.962;7.162;2023-02-28T01:18:45;5.87;;;4.30;;
15871;SDS011;8035;51.962;7.162;2023-02-28T01:21:12;7.57;;;4.10;;
15871;SDS011;8035;51.962;7.162;2023-02-28T01:23:40;5.53;;;4.00;;
15871;SDS011;8035;51.962;7.162;2023-02-28T01:26:18;6.03;;;3.83;;
15871;SDS011;8035;51.962;7.162;2023-02-28T01:28:46;4.73;;;3.80;;
15871;SDS011;8035;51.962;7.162;2023-02-28T01:31:12;5.27;;;3.70;;
15871;SDS011;8035;51.962;7.162;2023-02-28T01:33:39;4.70;;;3.90;;
15871;SDS011;8035;51.962;7.162;2023-02-28T01:36:06;5.77;;;4.23;;
15871;SDS011;8035;51.962;7.162;2023-02-28T01:38:35;7.10;;;4.07;;
15871;SDS011;8035;51.962;7.162;2023-02-28T01:41:01;4.97;;;4.00;;
15871;SDS011;8035;51.962;7.162;2023-02-28T01:43:31;3.93;;;3.53;;
15871;SDS011;8035;51.962;7.162;2023-02-28T01:46:17;7.53;;;3.80;;
15871;SDS011;8035;51.962;7.162;2023-02-28T01:48:44;6.47;;;4.07;;
15871;SDS011;8035;51.962;7.162;2023-02-28T01:51:24;12.37;;;4.10;;
15871;SDS011;8035;51.962;7.162;2023-02-28T01:53:59;5.77;;;3.80;;
15871;SDS011;8035;51.962;7.162;2023-02-28T01:56:29;5.40;;;4.17;;
15871;SDS011;8035;51.962;7.162;2023-02-28T02:08:40;6.33;;;3.47;;
15871;SDS011;8035;51.962;7.162;2023-02-28T02:11:07;4.93;;;4.47;;
15871;SDS011;8035;51.962;7.162;2023-02-28T02:19:49;6.97;;;3.50;;
15871;SDS011;8035;51.962;7.162;2023-02-28T02:36:32;5.30;;;3.83;;
15871;SDS011;8035;51.962;7.162;2023-02-28T02:39:14;5.40;;;3.70;;
15871;SDS011;8035;51.962;7.162;2023-02-28T02:41:53;4.27;;;3.33;;
15871;SDS011;8035;51.962;7.162;2023-02-28T02:44:22;4.53;;;3.13;;
15871;SDS011;8035;51.962;7.162;2023-02-28T02:46:59;6.07;;;3.73;;
15871;SDS011;8035;51.962;7.162;2023-02-28T02:49:31;3.40;;;2.93;;
15871;SDS011;8035;51.962;7.162;2023-02-28T02:52:00;4.33;;;3.50;;
15871;SDS011;8035;51.962;7.162;2023-02-28T02:54:33;4.03;;;3.63;;
15871;SDS011;8035;51.962;7.162;2023-02-28T02:57:04;4.73;;;3.40;;
15871;SDS011;8035;51.962;7.162;2023-02-28T02:59:33;4.13;;;3.70;;
15871;SDS011;8035;51.962;7.162;2023-02-28T03:02:01;4.67;;;3.60;;
15871;SDS011;8035;51.962;7.162;2023-02-28T03:04:56;4.57;;;3.30;;
15871;SDS011;8035;51.962;7.162;2023-02-28T03:07:25;3.40;;;3.10;;
15871;SDS011;8035;51.962;7.162;2023-02-28T03:09:52;4.70;;;3.73;;
15871;SDS011;8035;51.962;7.162;2023-02-28T03:12:22;3.77;;;3.27;;
15871;SDS011;8035;51.962;7.162;2023-02-28T03:18:04;4.13;;;3.00;;
15871;SDS011;8035;51.962;7.162;2023-02-28T03:24:33;4.47;;;3.30;;
15871;SDS011;8035;51.962;7.162;2023-02-28T03:26:36;4.27;;;3.07;;
15871;SDS011;8035;51.962;7.162;2023-02-28T03:29:19;3.57;;;3.27;;
15871;SDS011;8035;51.962;7.162;2023-02-28T03:31:57;4.57;;;3.20;;
15871;SDS011;8035;51.962;7.162;2023-02-28T03:34:29;5.20;;;3.30;;
15871;SDS011;8035;51.962;7.162;2023-02-28T03:37:04;4.60;;;3.50;;
15871;SDS011;8035;51.962;7.162;2023-02-28T03:39:37;3.63;;;3.30;;
15871;SDS011;8035;51.962;7.162;2023-02-28T03:42:11;3.87;;;3.43;;
15871;SDS011;8035;51.962;7.162;2023-02-28T03:44:52;3.93;;;3.40;;
15871;SDS011;8035;51.962;7.162;2023-02-28T03:47:22;4.03;;;3.30;;
15871;SDS011;8035;51.962;7.162;2023-02-28T03:49:58;5.30;;;3.07;;
15871;SDS011;8035;51.962;7.162;2023-02-28T03:52:32;3.77;;;3.37;;
15871;SDS011;8035;51.962;7.162;2023-02-28T03:55:01;4.27;;;3.10;;
15871;SDS011;8035;51.962;7.162;2023-02-28T03:57:33;4.80;;;3.80;;
15871;SDS011;8035;51.962;7.162;2023-02-28T04:02:53;4.30;;;3.60;;
15871;SDS011;8035;51.962;7.162;2023-02-28T04:05:20;3.80;;;3.13;;
15871;SDS011;8035;51.962;7.162;2023-02-28T04:07:46;3.97;;;3.23;;
15871;SDS011;8035;51.962;7.162;2023-02-28T04:10:13;5.50;;;3.40;;
15871;SDS011;8035;51.962;7.162;2023-02-28T04:12:41;5.00;;;3.50;;
15871;SDS011;8035;51.962;7.162;2023-02-28T04:15:07;3.90;;;3.47;;
15871;SDS011;8035;51.962;7.162;2023-02-28T04:17:34;3.50;;;3.20;;
15871;SDS011;8035;51.962;7.162;2023-02-28T04:20:00;4.03;;;3.27;;
15871;SDS011;8035;51.962;7.162;2023-02-28T04:22:25;4.87;;;3.83;;
15871;SDS011;8035;51.962;7.162;2023-02-28T04:24:51;3.93;;;3.50;;
15871;SDS011;8035;51.962;7.162;2023-02-28T04:27:18;4.93;;;3.50;;
15871;SDS011;8035;51.962;7.162;2023-02-28T04:29:44;5.70;;;3.87;;
15871;SDS011;8035;51.962;7.162;2023-02-28T04:32:10;4.97;;;3.63;;
15871;SDS011;8035;51.962;7.162;2023-02-28T04:34:36;5.37;;;3.73;;
15871;SDS011;8035;51.962;7.162;2023-02-28T04:40:08;4.73;;;3.50;;
15871;SDS011;8035;51.962;7.162;2023-02-28T04:42:34;5.20;;;3.57;;
15871;SDS011;8035;51.962;7.162;2023-02-28T04:45:04;4.77;;;3.80;;
15871;SDS011;8035;51.962;7.162;2023-02-28T04:47:31;3.87;;;3.23;;
15871;SDS011;8035;51.962;7.162;2023-02-28T04:49:56;3.70;;;3.40;;
15871;SDS011;8035;51.962;7.162;2023-02-28T04:52:22;4.53;;;3.70;;
15871;SDS011;8035;51.962;7.162;2023-02-28T04:54:48;5.70;;;4.00;;
15871;SDS011;8035;51.962;7.162;2023-02-28T04:57:14;4.23;;;3.80;;
15871;SDS011;8035;51.962;7.162;2023-02-28T04:59:40;4.77;;;3.80;;
15871;SDS011;8035;51.962;7.162;2023-02-28T05:02:05;6.40;;;3.80;;
15871;SDS011;8035;51.962;7.162;2023-02-28T05:04:35;3.77;;;3.03;;
15871;SDS011;8035;51.962;7.162;2023-02-28T05:07:01;7.17;;;3.70;;
15871;SDS011;8035;51.962;7.162;2023-02-28T05:09:28;5.53;;;3.70;;
15871;SDS011;8035;51.962;7.162;2023-02-28T05:11:54;5.77;;;3.73;;
15871;SDS011;8035;51.962;7.162;2023-02-28T05:14:20;6.03;;;4.10;;
15871;SDS011;8035;51.962;7.162;2023-02-28T05:16:46;4.47;;;3.60;;
15871;SDS011;8035;51.962;7.162;2023-02-28T05:19:12;4.00;;;3.60;;
15871;SDS011;8035;51.962;7.162;2023-02-28T05:21:38;5.27;;;3.57;;
15871;SDS011;8035;51.962;7.162;2023-02-28T05:24:14;4.23;;;3.37;;
15871;SDS011;8035;51.962;7.162;2023-02-28T05:26:40;4.63;;;3.40;;
15871;SDS011;8035;51.962;7.162;2023-02-28T05:29:07;4.00;;;3.60;;
15871;SDS011;8035;51.962;7.162;2023-02-28T05:31:34;3.90;;;3.50;;
15871;SDS011;8035;51.962;7.162;2023-02-28T05:34:01;3.47;;;3.10;;
15871;SDS011;8035;51.962;7.162;2023-02-28T05:36:27;4.90;;;3.47;;
15871;SDS011;8035;51.962;7.162;2023-02-28T05:38:52;7.33;;;3.40;;
15871;SDS011;8035;51.962;7.162;2023-02-28T05:41:18;3.90;;;3.23;;
15871;SDS011;8035;51.962;7.162;2023-02-28T05:43:44;3.77;;;3.33;;
15871;SDS011;8035;51.962;7.162;2023-02-28T05:46:10;3.77;;;3.20;;
15871;SDS011;8035;51.962;7.162;2023-02-28T05:48:37;5.33;;;4.00;;
15871;SDS011;8035;51.962;7.162;2023-02-28T05:51:04;4.07;;;3.60;;
15871;SDS011;8035;51.962;7.162;2023-02-28T05:53:31;4.57;;;4.00;;
15871;SDS011;8035;51.962;7.162;2023-02-28T05:55:57;5.07;;;3.83;;
15871;SDS011;8035;51.962;7.162;2023-02-28T05:58:23;4.53;;;3.87;;
15871;SDS011;8035;51.962;7.162;2023-02-28T06:00:50;6.30;;;3.60;;
15871;SDS011;8035;51.962;7.162;2023-02-28T06:03:16;5.67;;;3.97;;
15871;SDS011;8035;51.962;7.162;2023-02-28T06:05:41;4.90;;;3.90;;
15871;SDS011;8035;51.962;7.162;2023-02-28T06:08:07;4.80;;;3.63;;
15871;SDS011;8035;51.962;7.162;2023-02-28T06:10:33;4.50;;;3.80;;
15871;SDS011;8035;51.962;7.162;2023-02-28T06:13:00;6.37;;;4.67;;
15871;SDS011;8035;51.962;7.162;2023-02-28T06:15:30;6.57;;;4.37;;
15871;SDS011;8035;51.962;7.162;2023-02-28T06:17:55;5.63;;;4.57;;
15871;SDS011;8035;51.962;7.162;2023-02-28T06:20:22;5.60;;;3.80;;
15871;SDS011;8035;51.962;7.162;2023-02-28T06:22:48;6.47;;;5.33;;
15871;SDS011;8035;51.962;7.162;2023-02-28T06:25:15;7.60;;;4.83;;
15871;SDS011;8035;51.962;7.162;2023-02-28T06:27:42;6.87;;;4.67;;
15871;SDS011;8035;51.962;7.162;2023-02-28T06:30:08;6.27;;;4.57;;
15871;SDS011;8035;51.962;7.162;2023-02-28T06:32:34;8.07;;;4.87;;
15871;SDS011;8035;51.962;7.162;2023-02-28T06:35:00;5.60;;;4.40;;
15871;SDS011;8035;51.962;7.162;2023-02-28T06:37:26;5.27;;;4.50;;
15871;SDS011;8035;51.962;7.162;2023-02-28T06:39:53;5.83;;;4.30;;
15871;SDS011;8035;51.962;7.162;2023-02-28T06:42:20;7.20;;;4.60;;
15871;SDS011;8035;51.962;7.162;2023-02-28T06:44:47;6.60;;;4.63;;
15871;SDS011;8035;51.962;7.162;2023-02-28T06:47:13;6.27;;;4.60;;
15871;SDS011;8035;51.962;7.162;2023-02-28T06:49:39;5.93;;;4.20;;
15871;SDS011;8035;51.962;7.162;2023-02-28T06:52:05;5.57;;;4.50;;
15871;SDS011;8035;51.962;7.162;2023-02-28T06:54:49;6.43;;;4.57;;
15871;SDS011;8035;51.962;7.162;2023-02-28T06:57:24;5.57;;;3.70;;
15871;SDS011;8035;51.962;7.162;2023-02-28T06:59:59;5.27;;;3.53;;
15871;SDS011;8035;51.962;7.162;2023-02-28T07:02:27;6.03;;;3.53;;
15871;SDS011;8035;51.962;7.162;2023-02-28T07:04:53;4.80;;;3.97;;
15871;SDS011;8035;51.962;7.162;2023-02-28T07:07:19;5.40;;;4.23;;
15871;SDS011;8035;51.962;7.162;2023-02-28T07:09:44;4.73;;;3.33;;
15871;SDS011;8035;51.962;7.162;2023-02-28T07:12:10;4.27;;;3.57;;
15871;SDS011;8035;51.962;7.162;2023-02-28T07:14:36;4.20;;;3.40;;
15871;SDS011;8035;51.962;7.162;2023-02-28T07:17:02;5.03;;;3.40;;
15871;SDS011;8035;51.962;7.162;2023-02-28T07:19:28;3.80;;;3.40;;
15871;SDS011;8035;51.962;7.162;2023-02-28T07:21:54;3.47;;;3.17;;
15871;SDS011;8035;51.962;7.162;2023-02-28T07:27:03;3.50;;;3.20;;
15871;SDS011;8035;51.962;7.162;2023-02-28T07:29:29;3.93;;;3.53;;
15871;SDS011;8035;51.962;7.162;2023-02-28T07:31:55;4.30;;;3.80;;
15871;SDS011;8035;51.962;7.162;2023-02-28T07:34:21;4.23;;;3.30;;
15871;SDS011;8035;51.962;7.162;2023-02-28T07:36:47;4.43;;;3.53;;
15871;SDS011;8035;51.962;7.162;2023-02-28T07:39:13;3.60;;;3.27;;
15871;SDS011;8035;51.962;7.162;2023-02-28T07:41:38;6.40;;;3.37;;
15871;SDS011;8035;51.962;7.162;2023-02-28T07:44:09;3.07;;;2.77;;
15871;SDS011;8035;51.962;7.162;2023-02-28T07:46:36;2.93;;;2.63;;
15871;SDS011;8035;51.962;7.162;2023-02-28T07:49:01;3.70;;;2.70;;
15871;SDS011;8035;51.962;7.162;2023-02-28T07:51:30;5.43;;;2.67;;
15871;SDS011;8035;51.962;7.162;2023-02-28T07:53:56;5.40;;;3.00;;
15871;SDS011;8035;51.962;7.162;2023-02-28T07:56:22;3.57;;;2.80;;
15871;SDS011;8035;51.962;7.162;2023-02-28T08:01:32;3.40;;;3.10;;
15871;SDS011;8035;51.962;7.162;2023-02-28T08:03:58;4.03;;;3.20;;
15871;SDS011;8035;51.962;7.162;2023-02-28T08:06:24;5.40;;;3.80;;
15871;SDS011;8035;51.962;7.162;2023-02-28T08:08:51;4.40;;;3.90;;
15871;SDS011;8035;51.962;7.162;2023-02-28T08:11:17;4.23;;;3.83;;
15871;SDS011;8035;51.962;7.162;2023-02-28T08:13:44;5.30;;;4.50;;
15871;SDS011;8035;51.962;7.162;2023-02-28T08:16:10;5.77;;;5.13;;
15871;SDS011;8035;51.962;7.162;2023-02-28T08:18:36;7.03;;;5.73;;
15871;SDS011;8035;51.962;7.162;2023-02-28T08:21:06;7.80;;;6.37;;
15871;SDS011;8035;51.962;7.162;2023-02-28T08:23:32;8.10;;;7.17;;
15871;SDS011;8035;51.962;7.162;2023-02-28T08:25:58;10.73;;;8.40;;
15871;SDS011;8035;51.962;7.162;2023-02-28T08:28:24;11.20;;;9.37;;
15871;SDS011;8035;51.962;7.162;2023-02-28T08:30:49;11.37;;;9.00;;
15871;SDS011;8035;51.962;7.162;2023-02-28T08:33:15;15.70;;;9.77;;
15871;SDS011;8035;51.962;7.162;2023-02-28T08:35:41;13.83;;;10.30;;
15871;SDS011;8035;51.962;7.162;2023-02-28T08:38:06;26.63;;;16.43;;
15871;SDS011;8035;51.962;7.162;2023-02-28T08:40:32;25.77;;;15.73;;
15871;SDS011;8035;51.962;7.162;2023-02-28T08:42:58;23.67;;;15.60;;
15871;SDS011;8035;51.962;7.162;2023-02-28T08:48:09;22.87;;;15.57;;
15871;SDS011;8035;51.962;7.162;2023-02-28T08:50:34;18.97;;;13.40;;
15871;SDS011;8035;51.962;7.162;2023-02-28T08:53:00;16.97;;;12.20;;
15871;SDS011;8035;51.962;7.162;2023-02-28T08:55:26;18.23;;;10.30;;
15871;SDS011;8035;51.962;7.162;2023-02-28T08:57:51;15.17;;;10.50;;
15871;SDS011;8035;51.962;7.162;2023-02-28T09:00:17;11.93;;;8.10;;
15871;SDS011;8035;51.962;7.162;2023-02-28T09:02:43;10.93;;;8.03;;
15871;SDS011;8035;51.962;7.162;2023-02-28T09:05:09;11.87;;;7.37;;
15871;SDS011;8035;51.962;7.162;2023-02-28T09:07:34;13.77;;;6.97;;
15871;SDS011;8035;51.962;7.162;2023-02-28T09:10:00;7.27;;;6.00;;
15871;SDS011;8035;51.962;7.162;2023-02-28T09:12:26;7.27;;;5.23;;
15871;SDS011;8035;51.962;7.162;2023-02-28T09:14:56;7.77;;;5.13;;
15871;SDS011;8035;51.962;7.162;2023-02-28T09:17:22;5.67;;;3.87;;
15871;SDS011;8035;51.962;7.162;2023-02-28T09:19:48;5.53;;;3.90;;
15871;SDS011;8035;51.962;7.162;2023-02-28T09:22:14;4.17;;;2.70;;
15871;SDS011;8035;51.962;7.162;2023-02-28T09:24:40;3.33;;;2.57;;
15871;SDS011;8035;51.962;7.162;2023-02-28T09:27:05;3.07;;;2.33;;
15871;SDS011;8035;51.962;7.162;2023-02-28T09:29:32;3.70;;;2.17;;
15871;SDS011;8035;51.962;7.162;2023-02-28T09:31:58;2.47;;;1.90;;
15871;SDS011;8035;51.962;7.162;2023-02-28T09:34:25;2.20;;;1.70;;
15871;SDS011;8035;51.962;7.162;2023-02-28T09:36:51;1.87;;;1.60;;
15871;SDS011;8035;51.962;7.162;2023-02-28T09:39:19;1.53;;;1.30;;
15871;SDS011;8035;51.962;7.162;2023-02-28T09:41:47;2.10;;;1.87;;
15871;SDS011;8035;51.962;7.162;2023-02-28T09:46:54;1.90;;;1.63;;
15871;SDS011;8035;51.962;7.162;2023-02-28T09:49:25;2.10;;;1.60;;
15871;SDS011;8035;51.962;7.162;2023-02-28T09:52:14;1.90;;;1.20;;
15871;SDS011;8035;51.962;7.162;2023-02-28T09:54:46;2.37;;;1.83;;
15871;SDS011;8035;51.962;7.162;2023-02-28T10:05:15;3.60;;;1.60;;
15871;SDS011;8035;51.962;7.162;2023-02-28T10:08:17;1.20;;;1.10;;
15871;SDS011;8035;51.962;7.162;2023-02-28T10:10:40;1.20;;;1.10;;
15871;SDS011;8035;51.962;7.162;2023-02-28T10:16:07;3.10;;;1.23;;
15871;SDS011;8035;51.962;7.162;2023-02-28T10:18:46;2.03;;;1.50;;
15871;SDS011;8035;51.962;7.162;2023-02-28T10:21:17;2.53;;;1.60;;
15871;SDS011;8035;51.962;7.162;2023-02-28T10:24:15;1.80;;;1.43;;
15871;SDS011;8035;51.962;7.162;2023-02-28T10:27:00;1.70;;;1.20;;
15871;SDS011;8035;51.962;7.162;2023-02-28T10:29:36;1.20;;;1.10;;
15871;SDS011;8035;51.962;7.162;2023-02-28T10:32:05;1.67;;;1.20;;
15871;SDS011;8035;51.962;7.162;2023-02-28T10:34:30;1.37;;;1.27;;
15871;SDS011;8035;51.962;7.162;2023-02-28T10:36:56;2.13;;;1.33;;
15871;SDS011;8035;51.962;7.162;2023-02-28T10:42:02;1.73;;;1.30;;
15871;SDS011;8035;51.962;7.162;2023-02-28T10:44:28;1.43;;;1.17;;
15871;SDS011;8035;51.962;7.162;2023-02-28T10:46:54;2.47;;;1.70;;
15871;SDS011;8035;51.962;7.162;2023-02-28T10:54:38;3.40;;;2.30;;
15871;SDS011;8035;51.962;7.162;2023-02-28T10:59:31;3.70;;;1.73;;
15871;SDS011;8035;51.962;7.162;2023-02-28T11:01:57;2.33;;;1.70;;
15871;SDS011;8035;51.962;7.162;2023-02-28T11:07:01;1.47;;;1.10;;
15871;SDS011;8035;51.962;7.162;2023-02-28T11:11:57;1.60;;;1.30;;
15871;SDS011;8035;51.962;7.162;2023-02-28T11:14:25;1.63;;;1.20;;
15871;SDS011;8035;51.962;7.162;2023-02-28T11:16:52;2.87;;;1.40;;
15871;SDS011;8035;51.962;7.162;2023-02-28T11:19:24;2.50;;;1.50;;
15871;SDS011;8035;51.962;7.162;2023-02-28T11:21:53;1.60;;;1.40;;
15871;SDS011;8035;51.962;7.162;2023-02-28T11:24:33;1.60;;;1.50;;
15871;SDS011;8035;51.962;7.162;2023-02-28T11:27:02;3.27;;;1.40;;
15871;SDS011;8035;51.962;7.162;2023-02-28T11:29:28;2.17;;;1.40;;
15871;SDS011;8035;51.962;7.162;2023-02-28T11:34:44;1.40;;;1.30;;
15871;SDS011;8035;51.962;7.162;2023-02-28T11:37:14;1.70;;;1.47;;
15871;SDS011;8035;51.962;7.162;2023-02-28T11:39:43;1.90;;;1.40;;
15871;SDS011;8035;51.962;7.162;2023-02-28T11:48:01;3.07;;;1.50;;
15871;SDS011;8035;51.962;7.162;2023-02-28T11:50:52;1.67;;;1.57;;
15871;SDS011;8035;51.962;7.162;2023-02-28T11:59:20;1.60;;;1.40;;
15871;SDS011;8035;51.962;7.162;2023-02-28T12:10:21;1.93;;;1.70;;
15871;SDS011;8035;51.962;7.162;2023-02-28T12:15:45;1.80;;;1.60;;
15871;SDS011;8035;51.962;7.162;2023-02-28T12:25:18;1.87;;;1.67;;
15871;SDS011;8035;51.962;7.162;2023-02-28T12:28:08;1.30;;;1.20;;
15871;SDS011;8035;51.962;7.162;2023-02-28T12:30:37;3.07;;;1.87;;
15871;SDS011;8035;51.962;7.162;2023-02-28T12:33:14;2.20;;;1.50;;
15871;SDS011;8035;51.962;7.162;2023-02-28T12:35:59;3.10;;;1.43;;
15871;SDS011;8035;51.962;7.162;2023-02-28T12:38:35;1.60;;;1.50;;
15871;SDS011;8035;51.962;7.162;2023-02-28T12:41:27;1.77;;;1.60;;
15871;SDS011;8035;51.962;7.162;2023-02-28T12:44:20;2.03;;;1.50;;
15871;SDS011;8035;51.962;7.162;2023-02-28T12:46:53;2.23;;;1.73;;
15871;SDS011;8035;51.962;7.162;2023-02-28T12:52:07;2.13;;;1.93;;
15871;SDS011;8035;51.962;7.162;2023-02-28T12:57:22;2.57;;;2.13;;
15871;SDS011;8035;51.962;7.162;2023-02-28T13:00:13;2.53;;;2.00;;
15871;SDS011;8035;51.962;7.162;2023-02-28T13:10:52;2.70;;;1.60;;
15871;SDS011;8035;51.962;7.162;2023-02-28T13:13:22;2.03;;;1.80;;
15871;SDS011;8035;51.962;7.162;2023-02-28T13:16:23;2.13;;;1.80;;
15871;SDS011;8035;51.962;7.162;2023-02-28T13:18:43;9.00;;;5.93;;
15871;SDS011;8035;51.962;7.162;2023-02-28T13:21:29;2.80;;;1.97;;
15871;SDS011;8035;51.962;7.162;2023-02-28T13:28:58;3.00;;;1.60;;
15871;SDS011;8035;51.962;7.162;2023-02-28T13:31:25;2.03;;;1.80;;
15871;SDS011;8035;51.962;7.162;2023-02-28T13:38:48;1.77;;;1.63;;
15871;SDS011;8035;51.962;7.162;2023-02-28T13:44:06;2.93;;;1.90;;
15871;SDS011;8035;51.962;7.162;2023-02-28T13:54:43;2.47;;;1.87;;
15871;SDS011;8035;51.962;7.162;2023-02-28T14:06:35;2.00;;;1.90;;
15871;SDS011;8035;51.962;7.162;2023-02-28T14:08:57;2.00;;;1.80;;
15871;SDS011;8035;51.962;7.162;2023-02-28T14:11:35;2.17;;;1.90;;
15871;SDS011;8035;51.962;7.162;2023-02-28T14:14:04;2.57;;;2.20;;
15871;SDS011;8035;51.962;7.162;2023-02-28T14:16:44;2.40;;;2.10;;
15871;SDS011;8035;51.962;7.162;2023-02-28T14:19:15;2.10;;;1.90;;
15871;SDS011;8035;51.962;7.162;2023-02-28T14:22:07;2.10;;;1.90;;
15871;SDS011;8035;51.962;7.162;2023-02-28T14:25:18;1.90;;;1.80;;
15871;SDS011;8035;51.962;7.162;2023-02-28T14:27:55;3.00;;;1.70;;
15871;SDS011;8035;51.962;7.162;2023-02-28T14:36:10;3.27;;;2.07;;
15871;SDS011;8035;51.962;7.162;2023-02-28T14:38:56;2.20;;;1.90;;
15871;SDS011;8035;51.962;7.162;2023-02-28T14:41:33;3.33;;;2.00;;
15871;SDS011;8035;51.962;7.162;2023-02-28T14:44:14;2.93;;;2.17;;
15871;SDS011;8035;51.962;7.162;2023-02-28T14:46:52;2.13;;;1.93;;
15871;SDS011;8035;51.962;7.162;2023-02-28T14:52:01;2.43;;;2.00;;
15871;SDS011;8035;51.962;7.162;2023-02-28T14:54:45;2.37;;;2.00;;
15871;SDS011;8035;51.962;7.162;2023-02-28T14:57:26;2.37;;;2.17;;
15871;SDS011;8035;51.962;7.162;2023-02-28T14:59:58;1.60;;;1.50;;
15871;SDS011;8035;51.962;7.162;2023-02-28T15:02:39;3.60;;;2.10;;
15871;SDS011;8035;51.962;7.162;2023-02-28T15:07:34;2.83;;;2.53;;
15871;SDS011;8035;51.962;7.162;2023-02-28T15:15:42;2.20;;;2.00;;
15871;SDS011;8035;51.962;7.162;2023-02-28T15:18:11;1.90;;;1.80;;
15871;SDS011;8035;51.962;7.162;2023-02-28T15:20:55;2.20;;;1.90;;
15871;SDS011;8035;51.962;7.162;2023-02-28T15:23:23;2.10;;;1.93;;
15871;SDS011;8035;51.962;7.162;2023-02-28T15:25:49;2.43;;;2.00;;
15871;SDS011;8035;51.962;7.162;2023-02-28T15:28:19;2.40;;;2.20;;
15871;SDS011;8035;51.962;7.162;2023-02-28T15:30:59;2.43;;;1.90;;
15871;SDS011;8035;51.962;7.162;2023-02-28T15:33:29;2.10;;;1.90;;
15871;SDS011;8035;51.962;7.162;2023-02-28T15:36:13;2.30;;;2.10;;
15871;SDS011;8035;51.962;7.162;2023-02-28T15:38:40;2.10;;;1.90;;
15871;SDS011;8035;51.962;7.162;2023-02-28T15:41:25;2.50;;;2.10;;
15871;SDS011;8035;51.962;7.162;2023-02-28T15:47:23;2.20;;;2.00;;
15871;SDS011;8035;51.962;7.162;2023-02-28T15:50:06;2.63;;;2.30;;
15871;SDS011;8035;51.962;7.162;2023-02-28T15:55:08;3.10;;;2.17;;
15871;SDS011;8035;51.962;7.162;2023-02-28T15:57:52;2.43;;;2.23;;
15871;SDS011;8035;51.962;7.162;2023-02-28T16:00:23;3.43;;;2.23;;
15871;SDS011;8035;51.962;7.162;2023-02-28T16:02:51;2.63;;;2.30;;
15871;SDS011;8035;51.962;7.162;2023-02-28T16:05:24;5.20;;;2.60;;
15871;SDS011;8035;51.962;7.162;2023-02-28T16:07:59;4.43;;;2.73;;
15871;SDS011;8035;51.962;7.162;2023-02-28T16:10:39;3.30;;;2.10;;
15871;SDS011;8035;51.962;7.162;2023-02-28T16:13:05;3.47;;;2.20;;
15871;SDS011;8035;51.962;7.162;2023-02-28T16:15:34;2.57;;;2.37;;
15871;SDS011;8035;51.962;7.162;2023-02-28T16:18:07;3.97;;;2.80;;
15871;SDS011;8035;51.962;7.162;2023-02-28T16:20:37;3.23;;;2.63;;
15871;SDS011;8035;51.962;7.162;2023-02-28T16:23:03;3.20;;;2.40;;
15871;SDS011;8035;51.962;7.162;2023-02-28T16:25:42;3.13;;;2.73;;
15871;SDS011;8035;51.962;7.162;2023-02-28T16:28:19;3.93;;;3.27;;
15871;SDS011;8035;51.962;7.162;2023-02-28T16:30:51;4.47;;;3.30;;
15871;SDS011;8035;51.962;7.162;2023-02-28T16:33:36;2.70;;;2.40;;
15871;SDS011;8035;51.962;7.162;2023-02-28T16:36:01;2.87;;;2.40;;
15871;SDS011;8035;51.962;7.162;2023-02-28T16:38:27;2.70;;;2.50;;
15871;SDS011;8035;51.962;7.162;2023-02-28T16:40:53;3.20;;;2.57;;
15871;SDS011;8035;51.962;7.162;2023-02-28T16:43:23;2.83;;;2.63;;
15871;SDS011;8035;51.962;7.162;2023-02-28T16:45:54;3.40;;;3.10;;
15871;SDS011;8035;51.962;7.162;2023-02-28T16:48:22;3.20;;;2.90;;
15871;SDS011;8035;51.962;7.162;2023-02-28T16:50:48;3.77;;;2.80;;
15871;SDS011;8035;51.962;7.162;2023-02-28T16:53:14;2.97;;;2.77;;
15871;SDS011;8035;51.962;7.162;2023-02-28T16:55:40;3.60;;;2.90;;
15871;SDS011;8035;51.962;7.162;2023-02-28T16:58:06;6.80;;;3.57;;
15871;SDS011;8035;51.962;7.162;2023-02-28T17:00:36;5.70;;;4.67;;
15871;SDS011;8035;51.962;7.162;2023-02-28T17:03:02;5.33;;;3.53;;
15871;SDS011;8035;51.962;7.162;2023-02-28T17:05:28;6.10;;;3.00;;
15871;SDS011;8035;51.962;7.162;2023-02-28T17:08:01;3.53;;;3.23;;
15871;SDS011;8035;51.962;7.162;2023-02-28T17:10:28;18.40;;;13.97;;
15871;SDS011;8035;51.962;7.162;2023-02-28T17:12:54;8.40;;;6.17;;
15871;SDS011;8035;51.962;7.162;2023-02-28T17:15:20;4.30;;;3.90;;
15871;SDS011;8035;51.962;7.162;2023-02-28T17:17:46;9.37;;;5.87;;
15871;SDS011;8035;51.962;7.162;2023-02-28T17:20:17;5.70;;;4.50;;
15871;SDS011;8035;51.962;7.162;2023-02-28T17:22:47;5.30;;;3.80;;
15871;SDS011;8035;51.962;7.162;2023-02-28T17:25:13;5.50;;;3.60;;
15871;SDS011;8035;51.962;7.162;2023-02-28T17:27:39;9.43;;;7.17;;
15871;SDS011;8035;51.962;7.162;2023-02-28T17:30:10;38.40;;;21.80;;
15871;SDS011;8035;51.962;7.162;2023-02-28T17:32:43;39.87;;;21.37;;
15871;SDS011;8035;51.962;7.162;2023-02-28T17:35:09;27.63;;;15.97;;
15871;SDS011;8035;51.962;7.162;2023-02-28T17:37:35;10.97;;;6.17;;
15871;SDS011;8035;51.962;7.162;2023-02-28T17:40:03;9.23;;;5.07;;
15871;SDS011;8035;51.962;7.162;2023-02-28T17:42:29;9.67;;;5.77;;
15871;SDS011;8035;51.962;7.162;2023-02-28T17:44:55;6.90;;;4.60;;
15871;SDS011;8035;51.962;7.162;2023-02-28T17:47:21;7.00;;;5.13;;
15871;SDS011;8035;51.962;7.162;2023-02-28T17:49:46;4.50;;;3.63;;
15871;SDS011;8035;51.962;7.162;2023-02-28T17:55:02;6.97;;;3.90;;
15871;SDS011;8035;51.962;7.162;2023-02-28T17:57:28;4.10;;;3.70;;
15871;SDS011;8035;51.962;7.162;2023-02-28T17:59:54;4.50;;;4.10;;
15871;SDS011;8035;51.962;7.162;2023-02-28T18:02:19;6.03;;;3.87;;
15871;SDS011;8035;51.962;7.162;2023-02-28T18:04:45;6.27;;;4.90;;
15871;SDS011;8035;51.962;7.162;2023-02-28T18:07:11;6.90;;;4.77;;
15871;SDS011;8035;51.962;7.162;2023-02-28T18:09:37;5.17;;;4.67;;
15871;SDS011;8035;51.962;7.162;2023-02-28T18:12:02;5.43;;;4.43;;
15871;SDS011;8035;51.962;7.162;2023-02-28T18:14:28;5.23;;;4.63;;
15871;SDS011;8035;51.962;7.162;2023-02-28T18:16:54;5.10;;;4.60;;